createdAt,value
2023-04-04T00:04:36.773Z,83.5
2023-04-04T00:09:33.274Z,84.6
2023-04-04T00:14:29.891Z,83.2
2023-04-04T00:19:26.358Z,85.5
2023-04-04T00:25:37.017Z,89.6
2023-04-04T00:30:33.520Z,89.7
2023-04-04T00:35:30.170Z,91.5
2023-04-04T00:40:26.694Z,91.7
2023-04-04T00:46:37.372Z,89.3
2023-04-04T00:51:33.830Z,92.7
2023-04-04T00:56:30.345Z,91.6
2023-04-04T01:01:27.140Z,94.6
2023-04-04T01:07:37.613Z,93.9
2023-04-04T01:12:34.088Z,93
2023-04-04T01:17:30.607Z,95.3
2023-04-04T01:22:27.168Z,97.3
2023-04-04T01:28:37.792Z,98
2023-04-04T01:33:34.329Z,98.2
2023-04-04T01:38:30.824Z,98
2023-04-04T01:43:27.378Z,98.2
2023-04-04T01:48:23.925Z,100
2023-04-04T01:54:34.624Z,99.1
2023-04-04T01:59:31.196Z,100
2023-04-04T02:04:27.710Z,100
2023-04-04T02:10:38.639Z,100
2023-04-04T02:15:34.925Z,100
2023-04-04T02:20:31.388Z,100
2023-04-04T02:25:28.100Z,100
2023-04-04T02:30:24.447Z,100
2023-04-04T02:36:35.131Z,100
2023-04-04T02:46:28.270Z,100
2023-04-04T02:51:24.787Z,100
2023-04-04T02:57:35.504Z,100
2023-04-04T03:02:32.021Z,100
2023-04-04T03:07:28.453Z,100
2023-04-04T03:18:35.759Z,100
2023-04-04T03:23:32.186Z,100
2023-04-04T03:28:28.720Z,100
2023-04-04T03:33:25.316Z,100
2023-04-04T03:39:35.947Z,100
2023-04-04T03:44:32.452Z,100
2023-04-04T03:49:28.986Z,100
2023-04-04T03:54:25.640Z,100
2023-04-04T04:00:36.216Z,100
2023-04-04T04:05:32.719Z,100
2023-04-04T04:10:29.323Z,100
2023-04-04T04:15:25.895Z,100
2023-04-04T04:21:36.557Z,100
2023-04-04T04:26:33.000Z,100
2023-04-04T04:31:29.628Z,100
2023-04-04T04:36:26.088Z,100
2023-04-04T04:42:36.804Z,100
2023-04-04T04:47:33.364Z,100
2023-04-04T04:52:29.799Z,100
2023-04-04T04:57:26.343Z,100
2023-04-04T05:03:37.036Z,100
2023-04-04T05:08:33.525Z,100
2023-04-04T05:13:30.136Z,100
2023-04-04T05:18:26.591Z,100
2023-04-04T05:24:37.309Z,100
2023-04-04T05:29:33.772Z,100
2023-04-04T05:34:30.293Z,100
2023-04-04T05:39:26.948Z,100
2023-04-04T05:45:39.905Z,100
2023-04-04T05:50:34.121Z,100
2023-04-04T05:55:30.617Z,100
2023-04-04T06:00:27.208Z,100
2023-04-04T06:05:23.664Z,100
2023-04-04T06:11:34.306Z,100
2023-04-04T06:16:30.909Z,100
2023-04-04T06:21:27.436Z,99
2023-04-04T06:27:38.111Z,96.6
2023-04-04T06:32:34.615Z,92.3
2023-04-04T06:37:31.086Z,88.9
2023-04-04T06:42:27.640Z,88.5
2023-04-04T06:48:38.349Z,86.6
2023-04-04T06:53:34.843Z,88.1
2023-04-04T06:58:31.329Z,87.5
2023-04-04T07:03:27.921Z,88.3
2023-04-04T07:08:24.429Z,87.8
2023-04-04T07:14:35.100Z,86.3
2023-04-04T07:24:28.190Z,76.9
2023-04-04T07:29:24.687Z,74.5
2023-04-04T07:35:35.407Z,71.5
2023-04-04T07:40:31.951Z,69.3
2023-04-04T07:45:28.537Z,70.4
2023-04-04T07:56:35.629Z,66.1
2023-04-04T08:01:32.172Z,66
2023-04-04T08:06:28.728Z,61.6
2023-04-04T08:11:25.200Z,60.1
2023-04-04T08:17:35.998Z,60.4
2023-04-04T08:22:32.531Z,59.4
2023-04-04T08:27:28.992Z,57
2023-04-04T08:32:25.503Z,54.8
2023-04-04T08:38:36.137Z,52.9
2023-04-04T08:43:32.755Z,53.1
2023-04-04T08:48:29.219Z,53.4
2023-04-04T08:53:25.868Z,52.4
2023-04-04T08:59:36.488Z,53.1
2023-04-04T09:04:32.971Z,52.6
2023-04-04T09:09:29.554Z,53.2
2023-04-04T09:14:26.059Z,51.5
2023-04-04T09:20:36.870Z,53.2
2023-04-04T09:25:33.205Z,51.2
2023-04-04T09:30:29.795Z,51.2
2023-04-04T09:35:26.338Z,50.6
2023-04-04T09:41:37.026Z,51.4
2023-04-04T09:46:33.518Z,51.5
2023-04-04T09:51:30.021Z,49.7
2023-04-04T09:56:26.576Z,49.1
2023-04-04T10:02:37.272Z,47.5
2023-04-04T10:07:34.042Z,48.7
2023-04-04T10:12:30.232Z,47.4
2023-04-04T10:17:26.841Z,46.6
2023-04-04T10:23:37.500Z,47.8
2023-04-04T10:28:34.042Z,46.2
2023-04-04T10:33:30.582Z,47.5
2023-04-04T10:38:27.157Z,45.6
2023-04-04T10:44:37.886Z,46.2
2023-04-04T10:49:34.246Z,44
2023-04-04T10:54:30.800Z,44.4
2023-04-04T10:59:27.406Z,44.1
2023-04-04T11:05:38.006Z,46
2023-04-04T11:10:34.587Z,42.2
2023-04-04T11:15:31.062Z,42.9
2023-04-04T11:20:27.601Z,43.6
2023-04-04T11:25:24.162Z,43.2
2023-04-04T11:31:34.887Z,43.6
2023-04-04T11:36:31.389Z,43.8
2023-04-04T11:41:27.840Z,41.5
2023-04-04T11:46:24.455Z,41.8
2023-04-04T11:52:35.062Z,37.6
2023-04-04T12:02:28.216Z,33.9
2023-04-04T12:07:24.754Z,32.6
2023-04-04T12:13:35.439Z,32.3
2023-04-04T12:18:31.916Z,32.4
2023-04-04T12:23:28.401Z,31.8
2023-04-04T12:34:35.678Z,29.9
2023-04-04T12:39:32.129Z,29.4
2023-04-04T12:44:28.655Z,28.4
2023-04-04T12:49:25.237Z,29.3
2023-04-04T12:55:35.918Z,29.2
2023-04-04T13:00:32.384Z,27.2
2023-04-04T13:05:28.910Z,25.6
2023-04-04T13:10:25.564Z,26.2
2023-04-04T13:16:36.152Z,26.8
2023-04-04T13:21:32.689Z,25.6
2023-04-04T13:26:29.202Z,25.7
2023-04-04T13:31:25.803Z,25.3
2023-04-04T13:37:36.474Z,25.1
2023-04-04T13:42:33.065Z,24
2023-04-04T13:47:29.528Z,24.3
2023-04-04T13:52:26.057Z,23.3
2023-04-04T13:58:36.913Z,25.3
2023-04-04T14:03:33.263Z,23.4
2023-04-04T14:08:29.748Z,24.2
2023-04-04T14:13:26.288Z,23.5
2023-04-04T14:19:36.957Z,21.8
2023-04-04T14:24:33.504Z,23.7
2023-04-04T14:29:29.996Z,19
2023-04-04T14:34:26.635Z,25.6
2023-04-04T14:38:08.945Z,25.1
2023-04-04T14:40:37.299Z,23
2023-04-04T14:45:33.743Z,22.7
2023-04-04T14:50:30.279Z,21.4
2023-04-04T14:55:26.984Z,22.2
2023-04-04T15:01:37.514Z,23.2
2023-04-04T15:06:34.021Z,23.7
2023-04-04T15:11:30.533Z,21.5
2023-04-04T15:16:27.119Z,19.6
2023-04-04T15:21:23.654Z,19.6
2023-04-04T15:27:34.287Z,20.1
2023-04-04T15:32:30.797Z,19.8
2023-04-04T15:37:27.439Z,20.7
2023-04-04T15:43:38.039Z,18.6
2023-04-04T15:48:34.605Z,20.1
2023-04-04T15:53:31.091Z,18.7
2023-04-04T15:58:27.634Z,19.4
2023-04-04T16:04:38.313Z,20.7
2023-04-04T16:09:34.796Z,20.5
2023-04-04T16:14:31.299Z,21.6
2023-04-04T16:19:27.882Z,22.5
2023-04-04T16:24:24.489Z,23.1
2023-04-04T16:30:35.171Z,21.2
2023-04-04T16:35:31.582Z,23.5
2023-04-04T16:40:28.133Z,21.5
2023-04-04T16:45:24.716Z,22.5
2023-04-04T16:51:35.344Z,24
2023-04-04T16:56:31.883Z,22.2
2023-04-04T17:01:28.518Z,22.7
2023-04-04T17:12:35.699Z,24.2
2023-04-04T17:17:32.179Z,25.4
2023-04-04T17:22:28.666Z,24.5
2023-04-04T17:27:25.255Z,26.2
2023-04-04T17:33:35.939Z,27.6
2023-04-04T17:38:32.387Z,32
2023-04-04T17:43:28.933Z,34.5
2023-04-04T17:48:25.513Z,41.6
2023-04-04T17:54:36.187Z,42.1
2023-04-04T17:59:32.822Z,43.4
2023-04-04T18:04:29.205Z,43.5
2023-04-04T18:09:25.841Z,44
2023-04-04T18:15:36.575Z,48.3
2023-04-04T18:20:42.675Z,49
2023-04-04T18:25:29.495Z,49
2023-04-04T18:36:36.672Z,50.7
2023-04-04T18:41:33.192Z,49.9
2023-04-04T18:46:29.776Z,50.2
2023-04-04T18:51:26.346Z,50.1
2023-04-04T18:56:30.979Z,51.3
2023-04-04T19:01:27.644Z,53.5
2023-04-04T19:07:38.179Z,53
2023-04-04T19:12:34.713Z,53.5
2023-04-04T19:17:31.261Z,53.9
2023-04-04T19:22:27.778Z,52.9
2023-04-04T19:27:24.297Z,52.9
2023-04-04T19:33:34.985Z,51.6
2023-04-04T19:38:31.488Z,52.8
2023-04-04T19:43:28.178Z,51.6
2023-04-04T19:48:24.621Z,52.9
2023-04-04T19:54:35.319Z,52.9
2023-04-04T19:59:31.813Z,54.2
2023-04-04T20:04:28.362Z,52.9
2023-04-04T20:09:24.871Z,53.3
2023-04-04T20:15:35.513Z,53.7
2023-04-04T20:20:32.038Z,53.7
2023-04-04T20:25:28.574Z,54.2
2023-04-04T20:30:25.202Z,54.6
2023-04-04T20:36:35.784Z,54.9
2023-04-04T20:41:32.375Z,55.1
2023-04-04T20:46:28.884Z,54.7
2023-04-04T20:51:25.391Z,55.5
2023-04-04T20:57:36.110Z,55.6
2023-04-04T21:02:32.605Z,56.4
2023-04-04T21:07:29.107Z,56.6
2023-04-04T21:12:25.648Z,57.1
2023-04-04T21:18:36.345Z,57.3
2023-04-04T21:23:33.090Z,57.5
2023-04-04T21:28:29.381Z,57.6
2023-04-04T21:33:26.029Z,58.6
2023-04-04T21:39:36.704Z,58.7
2023-04-04T21:44:33.094Z,60.1
2023-04-04T21:49:29.644Z,58.5
2023-04-04T21:54:26.159Z,60
2023-04-04T22:00:36.860Z,62
2023-04-04T22:05:38.877Z,61.8
2023-04-04T22:10:29.937Z,65
2023-04-04T22:15:26.448Z,64.9
2023-04-04T22:21:37.476Z,63.8
2023-04-04T22:26:33.789Z,62
2023-04-04T22:31:30.204Z,63.1
2023-04-04T22:36:26.681Z,65.2
2023-04-04T22:42:37.385Z,67.9
2023-04-04T22:47:33.975Z,66.5
2023-04-04T22:52:30.450Z,65.1
2023-04-04T22:57:27.250Z,65.3
2023-04-04T23:03:37.765Z,68.5
2023-04-04T23:08:34.200Z,66.6
2023-04-04T23:13:30.749Z,67.4
2023-04-04T23:18:27.261Z,66.4
2023-04-04T23:23:23.775Z,66.1
2023-04-04T23:29:34.527Z,68.5
2023-04-04T23:34:30.954Z,67.5
2023-04-04T23:39:27.527Z,68
2023-04-04T23:44:24.062Z,70.3
2023-04-04T23:50:34.759Z,70.3
2023-04-04T23:55:31.199Z,71.9
